Time,TemperatureF,DewpointF,PressureIn,WindDirection,WindDirectionDegrees,WindSpeedMPH,WindSpeedGustMPH,Humidity,HourlyPrecipIn,Conditions,Clouds,dailyrainin,SoftwareType,DateUTC
2013-06-11 00:00:00,71.1,60.1,29.78,West,275,0.0,11.0,68,0.12,,---,0.00,VWS V12.08,2013-06-11 04:00:00,
2013-06-11 00:20:00,70.7,59.3,29.78,West,267,3.1,5.8,67,0.12,,---,0.00,VWS V12.08,2013-06-11 04:20:00,
2013-06-11 00:40:00,70.7,59.3,29.75,South,186,2.7,5.8,67,0.08,,---,0.00,VWS V12.08,2013-06-11 04:40:00,
2013-06-11 01:00:00,70.2,53.8,29.75,WSW,250,0.0,8.7,56,0.04,,---,0.00,VWS V12.08,2013-06-11 05:00:00,
2013-06-11 01:20:00,70.0,54.2,29.75,SW,219,2.7,10.5,57,0.00,,---,0.00,VWS V12.08,2013-06-11 05:20:00,
2013-06-11 01:40:00,69.8,57.9,29.75,South,188,12.3,12.3,66,0.00,,---,0.00,VWS V12.08,2013-06-11 05:40:00,
2013-06-11 02:00:00,69.8,57.9,29.75,WSW,257,3.6,12.3,66,0.00,,---,0.00,VWS V12.08,2013-06-11 06:00:00,
2013-06-11 02:20:00,69.4,56.7,29.75,SW,224,0.0,7.6,64,0.00,,---,0.00,VWS V12.08,2013-06-11 06:20:00,
2013-06-11 02:40:00,69.4,57.1,29.75,SSW,210,0.0,5.8,65,0.00,,---,0.00,VWS V12.08,2013-06-11 06:40:00,
2013-06-11 03:00:00,69.1,56.3,29.75,WSW,246,0.0,5.8,64,0.00,,---,0.00,VWS V12.08,2013-06-11 07:00:00,
2013-06-11 03:20:00,68.5,56.7,29.75,WNW,297,0.0,5.4,66,0.00,,---,0.00,VWS V12.08,2013-06-11 07:20:00,
2013-06-11 03:40:00,68.2,56.4,29.75,NW,313,0.0,3.1,66,0.00,,---,0.00,VWS V12.08,2013-06-11 07:40:00,
2013-06-11 04:00:00,67.6,56.3,29.75,NW,314,0.0,0.0,67,0.00,,---,0.00,VWS V12.08,2013-06-11 08:00:00,
2013-06-11 04:20:00,66.9,55.2,29.75,NW,314,0.0,0.0,66,0.00,,---,0.00,VWS V12.08,2013-06-11 08:20:00,
2013-06-11 04:40:00,66.4,54.7,29.75,WSW,252,0.0,0.0,66,0.00,,---,0.00,VWS V12.08,2013-06-11 08:40:00,
2013-06-11 05:00:00,66.0,55.2,29.75,WSW,253,0.0,0.0,68,0.00,,---,0.00,VWS V12.08,2013-06-11 09:00:00,
2013-06-11 05:20:00,65.7,54.5,29.75,WSW,252,0.0,0.0,67,0.00,,---,0.00,VWS V12.08,2013-06-11 09:20:00,
2013-06-11 05:40:00,65.1,53.9,29.78,WSW,253,0.0,0.0,67,0.00,,---,0.00,VWS V12.08,2013-06-11 09:40:00,
2013-06-11 06:00:00,64.9,53.8,29.78,WSW,253,0.0,0.0,67,0.00,,---,0.00,VWS V12.08,2013-06-11 10:00:00,
2013-06-11 06:20:00,64.8,54.0,29.78,WSW,252,0.0,0.0,68,0.00,,---,0.00,VWS V12.08,2013-06-11 10:20:00,
2013-06-11 06:40:00,65.5,55.2,29.78,NW,308,0.0,0.0,69,0.00,,---,0.00,VWS V12.08,2013-06-11 10:40:00,
2013-06-11 07:00:00,67.3,58.6,29.78,WNW,296,0.0,3.1,74,0.00,,---,0.00,VWS V12.08,2013-06-11 11:00:00,
2013-06-11 07:20:00,68.2,58.6,29.78,West,281,0.0,4.9,72,0.00,,---,0.00,VWS V12.08,2013-06-11 11:20:00,
2013-06-11 07:40:00,68.7,51.4,29.78,NNW,341,4.5,8.3,54,0.00,,---,0.00,VWS V12.08,2013-06-11 11:40:00,
2013-06-11 08:00:00,70.0,50.8,29.78,WNW,291,0.0,10.1,51,0.00,,---,0.00,VWS V12.08,2013-06-11 12:00:00,
2013-06-11 08:20:00,70.5,48.2,29.78,West,268,4.9,5.8,45,0.00,,---,0.00,VWS V12.08,2013-06-11 12:20:00,
2013-06-11 08:40:00,71.4,48.4,29.78,SW,224,4.0,8.3,44,0.00,,---,0.00,VWS V12.08,2013-06-11 12:40:00,
2013-06-11 09:00:00,72.1,46.2,29.78,WNW,289,3.1,8.3,40,0.00,,---,0.00,VWS V12.08,2013-06-11 13:00:00,
2013-06-11 09:20:00,73.0,46.3,29.78,WNW,291,4.0,8.7,38,0.00,,---,0.00,VWS V12.08,2013-06-11 13:20:00,
2013-06-11 09:40:00,73.6,46.0,29.75,SW,218,0.0,7.6,37,0.00,,---,0.00,VWS V12.08,2013-06-11 13:40:00,
2013-06-11 10:00:00,74.7,46.2,29.75,WNW,289,3.6,8.3,36,0.00,,---,0.00,VWS V12.08,2013-06-11 14:00:00,
2013-06-11 10:20:00,75.4,46.0,29.75,West,263,3.1,8.7,35,0.00,,---,0.00,VWS V12.08,2013-06-11 14:20:00,
2013-06-11 10:40:00,75.0,45.7,29.75,West,281,7.2,8.7,35,0.00,,---,0.00,VWS V12.08,2013-06-11 14:40:00,
2013-06-11 11:00:00,75.9,46.5,29.75,NW,313,4.0,7.2,35,0.00,,---,0.00,VWS V12.08,2013-06-11 15:00:00,
2013-06-11 11:20:00,75.9,46.5,29.75,WSW,238,7.6,7.6,35,0.00,,---,0.00,VWS V12.08,2013-06-11 15:20:00,
2013-06-11 11:40:00,76.6,47.1,29.75,WNW,299,4.0,10.1,35,0.00,,---,0.00,VWS V12.08,2013-06-11 15:40:00,
2013-06-11 12:00:00,77.9,47.4,29.75,SW,217,3.1,8.7,34,0.00,,---,0.00,VWS V12.08,2013-06-11 16:00:00,
2013-06-11 12:20:00,79.0,48.3,29.75,West,260,3.6,10.5,34,0.00,,---,0.00,VWS V12.08,2013-06-11 16:20:00,
2013-06-11 12:40:00,79.2,48.5,29.72,NW,315,3.6,11.4,34,0.00,,---,0.00,VWS V12.08,2013-06-11 16:40:00,
2013-06-11 13:00:00,79.5,48.8,29.72,NNW,340,8.1,8.7,34,0.00,,---,0.00,VWS V12.08,2013-06-11 17:00:00,
2013-06-11 13:20:00,79.5,48.8,29.72,WSW,256,2.7,10.1,34,0.00,,---,0.00,VWS V12.08,2013-06-11 17:20:00,
2013-06-11 13:40:00,79.5,48.8,29.72,West,264,5.8,12.8,34,0.00,,---,0.00,VWS V12.08,2013-06-11 17:40:00,
2013-06-11 14:00:00,78.3,47.7,29.72,West,269,2.7,11.9,34,0.00,,---,0.00,VWS V12.08,2013-06-11 18:00:00,
2013-06-11 14:20:00,78.3,47.7,29.72,West,268,6.3,12.3,34,0.00,,---,0.00,VWS V12.08,2013-06-11 18:20:00,
2013-06-11 14:40:00,78.3,47.7,29.72,SW,216,3.6,11.0,34,0.00,,---,0.00,VWS V12.08,2013-06-11 18:40:00,
2013-06-11 15:00:00,80.2,49.4,29.72,WSW,244,6.3,12.3,34,0.00,,---,0.00,VWS V12.08,2013-06-11 19:00:00,
2013-06-11 15:20:00,80.1,49.3,29.69,NW,313,5.4,14.5,34,0.00,,---,0.00,VWS V12.08,2013-06-11 19:20:00,
2013-06-11 15:40:00,80.2,49.4,29.69,WNW,283,12.3,13.2,34,0.00,,---,0.00,VWS V12.08,2013-06-11 19:40:00,
2013-06-11 16:00:00,79.5,48.8,29.69,NW,307,5.8,12.3,34,0.00,,---,0.00,VWS V12.08,2013-06-11 20:00:00,
2013-06-11 16:20:00,79.5,48.8,29.69,West,274,3.1,15.4,34,0.00,,---,0.00,VWS V12.08,2013-06-11 20:20:00,
2013-06-11 16:40:00,79.7,49.0,29.69,NW,319,15.0,17.0,34,0.00,,---,0.00,VWS V12.08,2013-06-11 20:40:00,
2013-06-11 17:00:00,79.2,48.5,29.69,WSW,244,2.7,15.4,34,0.00,,---,0.00,VWS V12.08,2013-06-11 21:00:00,
2013-06-11 17:20:00,78.3,47.7,29.69,NW,315,4.9,8.3,34,0.00,,---,0.00,VWS V12.08,2013-06-11 21:20:00,
2013-06-11 17:40:00,78.6,48.0,29.69,WSW,255,4.0,14.1,34,0.00,,---,0.00,VWS V12.08,2013-06-11 21:40:00,
2013-06-11 18:00:00,78.3,47.7,29.69,WSW,247,4.9,14.5,34,0.00,,---,0.00,VWS V12.08,2013-06-11 22:00:00,
2013-06-11 18:20:00,79.2,48.5,29.69,WNW,283,4.9,12.3,34,0.00,,---,0.00,VWS V12.08,2013-06-11 22:20:00,
2013-06-11 18:40:00,78.4,47.8,29.69,SW,226,4.0,18.3,34,0.00,,---,0.00,VWS V12.08,2013-06-11 22:40:00,
2013-06-11 19:00:00,77.4,46.9,29.69,West,264,0.0,10.5,34,0.00,,---,0.00,VWS V12.08,2013-06-11 23:00:00,
2013-06-11 19:20:00,77.4,46.9,29.69,West,259,3.1,9.2,34,0.00,,---,0.00,VWS V12.08,2013-06-11 23:20:00,
2013-06-11 19:40:00,76.8,46.4,29.72,WNW,296,7.6,14.1,34,0.00,,---,0.00,VWS V12.08,2013-06-11 23:40:00,
2013-06-11 20:00:00,75.9,45.6,29.72,WNW,290,6.3,13.2,34,0.00,,---,0.00,VWS V12.08,2013-06-12 00:00:00,
2013-06-11 20:20:00,75.0,45.7,29.72,West,261,0.0,7.6,35,0.00,,---,0.00,VWS V12.08,2013-06-12 00:20:00,
2013-06-11 20:40:00,74.3,45.0,29.72,WNW,294,0.0,6.3,35,0.00,,---,0.00,VWS V12.08,2013-06-12 00:40:00,
2013-06-11 21:00:00,73.9,44.7,29.72,WNW,294,8.1,12.3,35,0.00,,---,0.00,VWS V12.08,2013-06-12 01:00:00,
2013-06-11 21:20:00,73.4,44.3,29.72,WNW,301,5.8,8.3,35,0.00,,---,0.00,VWS V12.08,2013-06-12 01:20:00,
2013-06-11 21:40:00,72.7,43.6,29.75,West,268,4.0,8.3,35,0.00,,---,0.00,VWS V12.08,2013-06-12 01:40:00,
2013-06-11 22:00:00,72.5,43.5,29.75,West,277,4.0,7.2,35,0.00,,---,0.00,VWS V12.08,2013-06-12 02:00:00,
2013-06-11 22:20:00,72.5,43.5,29.75,West,277,7.6,8.7,35,0.00,,---,0.00,VWS V12.08,2013-06-12 02:20:00,
2013-06-11 22:40:00,72.1,43.2,29.78,West,281,3.1,8.7,35,0.00,,---,0.00,VWS V12.08,2013-06-12 02:40:00,
2013-06-11 23:00:00,71.8,42.8,29.78,WNW,294,4.5,7.2,35,0.00,,---,0.00,VWS V12.08,2013-06-12 03:00:00,
2013-06-11 23:20:00,71.8,42.8,29.78,WSW,248,8.7,11.0,35,0.00,,---,0.00,VWS V12.08,2013-06-12 03:20:00,
2013-06-11 23:40:00,71.4,43.3,29.78,NW,304,2.7,8.7,36,0.00,,---,0.00,VWS V12.08,2013-06-12 03:40:00,